Time;durP1;ratioP1;P1;durP2;ratioP2;P2;SDS_P1;SDS_P2;PMS_P1;PMS_P2;Temp;Humidity;BMP_temperature;BMP_pressure;BME280_temperature;BME280_humidity;BME280_pressure;Samples;Min_cycle;Max_cycle;Signal;HPM_P1;HPM_P2
2021/05/03 00:00:41;;;;;;;12.52;5.68;;;;;;;5.70;64.74;102122.75;5057624;28;20156;-71
2021/05/03 00:03:09;;;;;;;15.73;6.38;;;;;;;5.66;65.08;102122.09;5052628;28;20480;-71
2021/05/03 00:05:35;;;;;;;22.08;7.00;;;;;;;5.64;65.73;102116.13;5040752;28;20076;-71
2021/05/03 00:08:01;;;;;;;14.95;7.32;;;;;;;5.63;65.56;102114.47;5056634;28;20144;-71
2021/05/03 00:10:27;;;;;;;19.50;7.05;;;;;;;5.61;65.42;102124.13;5039885;28;20133;-71
2021/05/03 00:12:53;;;;;;;14.32;6.65;;;;;;;5.58;65.98;102123.44;5055090;28;20072;-71
2021/05/03 00:15:20;;;;;;;10.57;5.50;;;;;;;5.58;65.40;102126.03;5045842;28;20044;-71
2021/05/03 00:17:46;;;;;;;10.95;5.85;;;;;;;5.55;66.08;102127.06;5051171;28;20056;-71
2021/05/03 00:20:12;;;;;;;10.82;5.60;;;;;;;5.47;66.55;102117.03;5050853;28;20059;-70
2021/05/03 00:22:38;;;;;;;13.38;6.15;;;;;;;5.51;66.30;102123.75;5062343;28;20088;-71
2021/05/03 00:25:05;;;;;;;11.30;6.32;;;;;;;5.50;66.22;102109.06;5062483;28;20087;-71
2021/05/03 00:27:31;;;;;;;13.73;5.32;;;;;;;5.51;66.37;102107.31;5056673;28;20153;-71
2021/05/03 00:29:57;;;;;;;12.10;5.70;;;;;;;5.54;65.80;102112.34;5054283;28;20076;-71
2021/05/03 00:32:23;;;;;;;20.52;9.40;;;;;;;5.55;66.57;102117.47;5049317;28;20071;-70
2021/05/03 00:34:49;;;;;;;20.52;10.13;;;;;;;5.54;65.73;102107.97;5058783;28;20461;-70
2021/05/03 00:37:15;;;;;;;12.77;5.88;;;;;;;5.49;66.62;102096.16;5051939;28;20056;-70
2021/05/03 00:39:42;;;;;;;10.50;6.15;;;;;;;5.43;66.65;102102.50;5059474;28;20056;-71
2021/05/03 00:42:08;;;;;;;19.15;6.35;;;;;;;5.46;66.74;102106.72;5059877;28;20052;-71
2021/05/03 00:44:34;;;;;;;10.85;5.57;;;;;;;5.45;67.10;102110.22;5047561;28;20054;-70
2021/05/03 00:47:01;;;;;;;10.23;6.05;;;;;;;5.45;66.57;102113.69;5057313;28;20052;-70
2021/05/03 00:49:27;;;;;;;11.30;5.88;;;;;;;5.37;67.15;102109.78;5055751;28;20058;-71
2021/05/03 00:51:54;;;;;;;9.77;6.07;;;;;;;5.39;67.54;102115.75;5064159;28;20049;-70
2021/05/03 00:54:20;;;;;;;9.32;5.60;;;;;;;5.37;66.57;102109.78;5058230;28;20045;-71
2021/05/03 00:56:46;;;;;;;12.82;6.10;;;;;;;5.32;67.05;102105.66;5044945;28;20133;-70
2021/05/03 00:59:12;;;;;;;11.10;4.90;;;;;;;5.35;66.03;102120.28;5061007;28;20489;-70
2021/05/03 01:01:38;;;;;;;11.70;6.00;;;;;;;5.29;67.21;102112.78;5053161;28;20141;-71
2021/05/03 01:04:04;;;;;;;10.70;6.57;;;;;;;5.26;67.23;102118.16;5059052;28;20045;-70
2021/05/03 01:06:31;;;;;;;12.40;5.93;;;;;;;5.22;66.82;102119.25;5052429;28;20505;-71
2021/05/03 01:08:57;;;;;;;8.13;5.20;;;;;;;5.17;67.10;102124.69;5065343;28;20132;-71
2021/05/03 01:11:23;;;;;;;11.77;6.47;;;;;;;5.15;67.72;102116.97;5042445;28;20523;-71
2021/05/03 01:13:50;;;;;;;10.52;6.20;;;;;;;5.19;68.11;102116.78;5062439;28;20164;-71
2021/05/03 01:16:16;;;;;;;13.57;6.60;;;;;;;5.17;68.19;102103.03;5064049;28;20097;-71
2021/05/03 01:18:42;;;;;;;12.45;6.20;;;;;;;5.25;67.99;102111.28;5036903;28;20086;-71
2021/05/03 01:21:08;;;;;;;11.77;6.38;;;;;;;5.25;67.22;102106.06;5066231;28;20049;-71
2021/05/03 01:23:34;;;;;;;11.07;6.00;;;;;;;5.22;66.64;102108.84;5033463;28;20411;-70
2021/05/03 01:26:00;;;;;;;12.93;6.03;;;;;;;5.20;66.84;102098.50;5058978;28;20549;-70
2021/05/03 01:28:26;;;;;;;14.43;6.88;;;;;;;5.17;66.37;102101.25;5061967;28;20436;-72
2021/05/03 01:30:53;;;;;;;15.65;6.97;;;;;;;5.17;66.99;102096.06;5065601;28;20052;-71
2021/05/03 01:33:19;;;;;;;15.95;7.25;;;;;;;5.12;66.83;102093.72;5065596;28;20040;-71
2021/05/03 01:35:48;;;;;;;12.65;6.72;;;;;;;5.14;66.65;102093.63;5054656;28;20064;-70
2021/05/03 01:38:15;;;;;;;12.93;5.60;;;;;;;5.08;66.95;102089.59;5057254;28;20878;-70
2021/05/03 01:40:46;;;;;;;9.70;6.00;;;;;;;5.07;66.91;102100.06;5033888;28;20076;-71
2021/05/03 01:43:21;;;;;;;11.07;5.93;;;;;;;5.03;67.09;102098.53;5063040;28;20056;-70
2021/05/03 01:45:50;;;;;;;13.90;6.57;;;;;;;4.97;66.61;102091.91;5062221;28;20067;-71
2021/05/03 01:48:17;;;;;;;;;;;;;;;5.00;67.11;102107.34;5060334;28;20074;-70
2021/05/03 01:50:44;;;;;;;12.60;6.35;;;;;;;4.95;67.77;102102.38;5060106;28;20015;-70
2021/05/03 01:53:10;;;;;;;13.15;6.53;;;;;;;4.93;67.96;102098.19;5048606;28;20150;-71
2021/05/03 01:55:39;;;;;;;12.25;6.80;;;;;;;4.92;68.20;102104.28;5062136;28;20377;-71
2021/05/03 01:58:07;;;;;;;13.65;7.30;;;;;;;4.92;68.35;102097.34;5053609;28;20057;-71
2021/05/03 02:00:34;;;;;;;10.63;6.57;;;;;;;4.90;68.02;102099.19;5060703;28;20123;-71
2021/05/03 02:03:00;;;;;;;12.40;6.53;;;;;;;4.89;67.55;102099.25;5065000;28;20145;-71
2021/05/03 02:05:28;;;;;;;14.65;6.60;;;;;;;4.87;67.77;102096.72;5054648;28;20110;-71
2021/05/03 02:08:05;;;;;;;12.05;6.75;;;;;;;4.86;67.21;102095.06;5042704;28;20087;-71
2021/05/03 02:10:33;;;;;;;12.50;6.97;;;;;;;4.79;67.38;102092.84;5056129;28;20145;-71
2021/05/03 02:13:00;;;;;;;11.75;6.38;;;;;;;4.77;66.83;102100.72;5065337;28;20421;-71
2021/05/03 02:15:28;;;;;;;14.38;7.10;;;;;;;4.70;68.46;102091.53;5054320;28;20423;-71
2021/05/03 02:17:54;;;;;;;18.17;8.05;;;;;;;4.67;68.53;102099.50;5063473;28;20229;-71
2021/05/03 02:20:21;;;;;;;13.13;7.40;;;;;;;4.66;67.81;102096.03;5051923;28;20075;-71
2021/05/03 02:22:47;;;;;;;16.42;6.57;;;;;;;4.63;67.26;102098.81;5060058;28;20503;-71
2021/05/03 02:25:13;;;;;;;12.65;6.82;;;;;;;4.56;67.91;102090.47;5061426;28;20472;-71
2021/05/03 02:27:46;;;;;;;12.10;6.95;;;;;;;4.50;67.67;102087.34;5052034;28;20084;-71
2021/05/03 02:30:12;;;;;;;13.63;6.80;;;;;;;4.49;68.09;102083.06;5062655;28;20912;-71
2021/05/03 02:32:41;;;;;;;10.48;6.38;;;;;;;4.51;67.81;102083.84;5047515;28;20056;-71
2021/05/03 02:35:17;;;;;;;12.73;6.90;;;;;;;4.48;67.85;102082.22;5058200;28;20584;-72
2021/05/03 02:37:46;;;;;;;14.98;7.30;;;;;;;4.46;67.97;102078.00;5053483;28;20056;-71
2021/05/03 02:40:13;;;;;;;14.50;7.35;;;;;;;4.44;67.40;102064.25;5060194;28;20449;-71
2021/05/03 02:42:40;;;;;;;13.85;7.30;;;;;;;4.46;67.88;102078.00;5065324;28;20576;-71
2021/05/03 02:45:07;;;;;;;11.32;6.25;;;;;;;4.42;67.79;102063.50;5051449;28;20104;-71
2021/05/03 02:47:33;;;;;;;13.80;7.38;;;;;;;4.38;68.37;102074.97;5058705;28;20053;-71
2021/05/03 02:49:59;;;;;;;12.65;7.50;;;;;;;4.33;68.64;102069.97;5050678;28;20115;-72
2021/05/03 02:52:25;;;;;;;15.02;7.97;;;;;;;4.29;68.76;102064.09;5043324;28;20371;-71
2021/05/03 02:54:51;;;;;;;13.98;7.43;;;;;;;4.28;68.90;102065.00;5056459;28;20060;-72
2021/05/03 02:57:17;;;;;;;12.20;6.88;;;;;;;4.29;68.73;102063.25;5044550;28;20098;-71
2021/05/03 02:59:43;;;;;;;14.25;6.85;;;;;;;4.29;68.88;102060.66;5053743;28;20052;-71
2021/05/03 03:02:09;;;;;;;15.38;7.07;;;;;;;4.27;68.39;102054.69;5049384;28;20055;-71
2021/05/03 03:04:35;;;;;;;17.00;8.02;;;;;;;4.30;68.34;102062.34;5061044;28;20055;-71
2021/05/03 03:07:01;;;;;;;14.77;7.68;;;;;;;4.28;68.36;102052.03;5047501;28;20060;-71
2021/05/03 03:09:27;;;;;;;16.88;8.10;;;;;;;4.32;69.06;102060.50;5060269;28;20456;-71
2021/05/03 03:11:54;;;;;;;14.98;7.72;;;;;;;4.27;68.91;102052.09;5059793;28;20062;-71
2021/05/03 03:14:20;;;;;;;15.80;8.23;;;;;;;4.29;68.59;102061.50;5052173;28;20161;-71
2021/05/03 03:16:46;;;;;;;18.25;8.50;;;;;;;4.25;68.61;102057.34;5056663;28;20059;-71
2021/05/03 03:19:12;;;;;;;16.80;7.72;;;;;;;4.25;67.94;102059.94;5053164;28;20055;-71
2021/05/03 03:21:39;;;;;;;14.43;7.57;;;;;;;4.22;68.06;102060.13;5062078;28;20056;-71
2021/05/03 03:24:05;;;;;;;14.15;7.72;;;;;;;4.10;68.66;102058.13;5050533;28;20060;-70
2021/05/03 03:26:31;;;;;;;15.43;8.23;;;;;;;4.05;68.96;102055.72;5060182;28;20052;-71
2021/05/03 03:28:57;;;;;;;13.77;8.35;;;;;;;3.98;69.56;102062.16;5054450;28;20492;-71
2021/05/03 03:31:23;;;;;;;13.80;8.77;;;;;;;3.96;69.56;102062.22;5051531;28;20048;-71
2021/05/03 03:33:49;;;;;;;17.30;9.52;;;;;;;3.91;70.22;102061.59;5061598;28;20510;-71
2021/05/03 03:36:15;;;;;;;18.35;9.40;;;;;;;3.90;69.73;102059.91;5052778;28;20068;-70
2021/05/03 03:38:41;;;;;;;20.52;9.23;;;;;;;3.91;69.92;102051.19;5060824;28;20545;-71
2021/05/03 03:41:08;;;;;;;14.52;8.07;;;;;;;3.94;70.04;102045.88;5053386;28;20143;-70
2021/05/03 03:43:34;;;;;;;17.23;8.63;;;;;;;3.91;69.96;102045.19;5055265;28;20476;-70
2021/05/03 03:46:00;;;;;;;20.20;8.57;;;;;;;3.97;68.43;102045.72;5061598;28;20511;-70
2021/05/03 03:48:26;;;;;;;17.05;8.88;;;;;;;3.96;69.41;102038.03;5051549;28;20491;-70
2021/05/03 03:50:52;;;;;;;14.40;8.82;;;;;;;3.99;68.82;102039.63;5045673;28;20480;-70
2021/05/03 03:53:18;;;;;;;16.80;8.63;;;;;;;3.95;69.66;102034.56;5056179;28;20396;-70
2021/05/03 03:55:44;;;;;;;17.48;9.25;;;;;;;3.98;69.75;102038.78;5054608;28;20059;-70
2021/05/03 03:58:10;;;;;;;17.10;9.00;;;;;;;4.00;70.78;102044.75;5052615;28;20765;-70
2021/05/03 04:00:36;;;;;;;15.80;9.50;;;;;;;4.01;70.63;102049.00;5038593;28;20068;-70
2021/05/03 04:03:05;;;;;;;19.33;9.93;;;;;;;4.08;70.88;102046.97;5058275;28;20055;-70
2021/05/03 04:08:19;;;;;;;16.58;10.35;;;;;;;4.07;71.63;102040.91;5057040;28;20508;-70
2021/05/03 04:13:27;;;;;;;20.30;11.63;;;;;;;4.12;71.96;102045.91;5063259;28;20151;-71
2021/05/03 04:26:19;;;;;;;25.98;13.48;;;;;;;4.10;72.27;102045.97;5062791;28;20056;-70
2021/05/03 04:28:47;;;;;;;23.67;13.68;;;;;;;4.18;72.50;102044.78;5055345;28;20719;-70
2021/05/03 04:31:14;;;;;;;29.63;15.73;;;;;;;4.12;72.33;102040.72;5065036;28;20133;-70
2021/05/03 04:33:41;;;;;;;30.75;14.98;;;;;;;4.08;72.60;102044.38;5041228;28;20055;-70
2021/05/03 04:36:08;;;;;;;30.60;14.80;;;;;;;4.14;72.67;102036.28;5062698;28;20761;-70
2021/05/03 04:38:35;;;;;;;25.95;14.93;;;;;;;4.17;72.61;102033.53;5054283;28;20056;-70
2021/05/03 04:41:01;;;;;;;27.98;15.70;;;;;;;4.21;72.48;102039.41;5063485;28;20048;-70
2021/05/03 04:43:27;;;;;;;25.90;14.65;;;;;;;4.26;72.66;102033.06;5044565;28;20129;-70
2021/05/03 04:45:53;;;;;;;30.88;14.38;;;;;;;4.27;72.47;102044.31;5054467;28;20099;-71
2021/05/03 04:48:19;;;;;;;24.27;15.05;;;;;;;4.29;72.41;102037.28;5061912;28;20076;-70
2021/05/03 04:50:45;;;;;;;31.63;14.43;;;;;;;4.35;72.02;102039.56;5046154;28;20131;-70
2021/05/03 04:53:11;;;;;;;29.10;15.25;;;;;;;4.33;71.90;102033.59;5058967;28;20056;-71
2021/05/03 04:55:38;;;;;;;26.05;14.38;;;;;;;4.33;71.69;102031.00;5057063;28;20149;-70
2021/05/03 04:58:06;;;;;;;26.48;13.77;;;;;;;4.34;71.52;102040.50;5047392;28;20514;-71
2021/05/03 05:00:33;;;;;;;27.45;15.55;;;;;;;4.40;71.60;102032.38;5059898;28;20053;-71
2021/05/03 05:02:59;;;;;;;34.58;15.85;;;;;;;4.44;71.27;102043.47;5057804;28;20051;-71
2021/05/03 05:05:27;;;;;;;25.40;13.65;;;;;;;4.44;71.01;102049.50;5061048;28;20103;-71
2021/05/03 05:07:54;;;;;;;27.48;14.27;;;;;;;4.45;71.28;102045.13;5058782;28;20121;-71
2021/05/03 05:10:20;;;;;;;32.65;15.75;;;;;;;4.52;71.11;102049.94;5042855;28;20106;-71
2021/05/03 05:12:47;;;;;;;28.15;15.63;;;;;;;4.52;70.66;102052.56;5042422;28;20075;-71
2021/05/03 05:15:13;;;;;;;29.70;14.93;;;;;;;4.52;70.66;102043.94;5066292;28;20084;-71
2021/05/03 05:17:39;;;;;;;26.50;13.00;;;;;;;4.61;70.86;102047.84;5045660;28;20059;-71
2021/05/03 05:20:06;;;;;;;27.77;13.80;;;;;;;4.62;70.99;102049.50;5056114;28;20079;-71
2021/05/03 05:22:33;;;;;;;26.00;13.75;;;;;;;4.64;70.92;102050.25;5062508;28;20092;-71
2021/05/03 05:25:00;;;;;;;27.77;13.27;;;;;;;4.64;70.47;102037.28;5053136;28;20049;-71
2021/05/03 05:27:26;;;;;;;22.70;13.57;;;;;;;4.72;70.09;102041.19;5059998;28;20136;-71
2021/05/03 05:29:52;;;;;;;26.15;13.93;;;;;;;4.64;70.39;102034.66;5050050;28;20060;-71
2021/05/03 05:32:18;;;;;;;27.08;13.95;;;;;;;4.68;70.42;102031.81;5051644;28;20458;-71
2021/05/03 05:34:44;;;;;;;23.70;13.40;;;;;;;4.73;70.64;102037.63;5059920;28;20052;-71
2021/05/03 05:37:11;;;;;;;29.88;13.40;;;;;;;4.74;70.61;102028.94;5054478;28;20519;-71
2021/05/03 05:39:38;;;;;;;25.65;12.88;;;;;;;4.76;70.67;102036.63;5062180;28;20052;-71
2021/05/03 05:42:05;;;;;;;27.10;13.93;;;;;;;4.77;70.50;102034.91;5046545;28;20135;-71
2021/05/03 05:44:31;;;;;;;24.67;13.32;;;;;;;4.81;70.32;102033.81;5057779;28;20102;-71
2021/05/03 05:46:58;;;;;;;30.02;12.82;;;;;;;4.85;70.22;102035.34;5047794;28;20044;-71
2021/05/03 05:49:24;;;;;;;23.40;14.32;;;;;;;4.88;70.08;102036.03;5062496;28;20054;-71
2021/05/03 05:51:50;;;;;;;25.52;13.73;;;;;;;4.92;70.01;102032.34;5059494;28;20052;-71
2021/05/03 05:54:16;;;;;;;27.45;13.80;;;;;;;5.02;69.92;102031.84;5038224;28;21021;-70
2021/05/03 05:56:42;;;;;;;31.65;14.93;;;;;;;5.10;69.77;102033.13;5064446;28;20051;-71
2021/05/03 05:59:08;;;;;;;32.25;15.73;;;;;;;5.12;69.24;102031.28;5054150;28;20503;-71
2021/05/03 06:01:34;;;;;;;29.42;14.15;;;;;;;5.21;69.40;102032.53;5054310;28;20102;-71
2021/05/03 06:04:00;;;;;;;28.35;15.23;;;;;;;5.29;69.28;102022.59;5063476;28;20044;-70
2021/05/03 06:06:27;;;;;;;30.52;16.00;;;;;;;5.31;68.56;102027.69;5063553;28;20053;-70
2021/05/03 06:08:53;;;;;;;31.00;15.75;;;;;;;5.27;68.14;102019.22;5060953;28;20056;-72
2021/05/03 06:11:19;;;;;;;29.75;15.95;;;;;;;5.41;67.86;102031.50;5048288;28;20054;-70
2021/05/03 06:13:45;;;;;;;26.13;14.25;;;;;;;5.41;68.08;102030.63;5054003;28;20056;-70
2021/05/03 06:16:11;;;;;;;30.55;14.77;;;;;;;5.45;67.71;102025.19;5045894;28;20057;-70
2021/05/03 06:18:37;;;;;;;28.05;15.20;;;;;;;5.56;67.82;102024.59;5062480;28;20079;-70
2021/05/03 06:21:04;;;;;;;30.17;14.77;;;;;;;5.61;67.17;102025.19;5064707;28;20048;-70
2021/05/03 06:23:30;;;;;;;32.22;14.95;;;;;;;5.67;66.86;102022.25;5054857;28;20106;-70
2021/05/03 06:25:57;;;;;;;31.80;14.50;;;;;;;5.79;66.85;102031.13;5060349;28;20060;-70
2021/05/03 06:28:23;;;;;;;24.83;13.45;;;;;;;5.85;66.26;102022.97;5047564;28;20478;-70
2021/05/03 06:30:55;;;;;;;27.55;13.65;;;;;;;5.85;65.96;102024.75;5060650;28;20045;-70
2021/05/03 06:33:22;;;;;;;24.73;13.65;;;;;;;5.89;65.29;102023.66;5055860;28;20055;-70
2021/05/03 06:35:49;;;;;;;24.17;13.80;;;;;;;5.98;65.51;102024.91;5063750;28;20530;-70
2021/05/03 06:38:16;;;;;;;25.10;12.50;;;;;;;6.04;64.82;102027.19;5045635;28;20056;-71
2021/05/03 06:40:42;;;;;;;26.63;13.07;;;;;;;6.10;63.86;102022.47;5053383;28;20048;-71
2021/05/03 06:43:09;;;;;;;23.13;11.70;;;;;;;6.19;63.46;102021.09;5059989;28;20088;-71
2021/05/03 06:45:35;;;;;;;22.25;11.82;;;;;;;6.30;62.36;102021.31;5057151;28;20356;-72
2021/05/03 06:48:02;;;;;;;19.05;10.27;;;;;;;6.33;62.25;102020.28;5064270;28;20564;-72
2021/05/03 06:50:28;;;;;;;27.95;11.10;;;;;;;6.45;61.89;102016.13;5053972;28;20060;-73
2021/05/03 06:52:54;;;;;;;22.73;10.35;;;;;;;6.52;61.77;102010.47;5063990;28;20048;-71
2021/05/03 06:55:21;;;;;;;21.50;11.60;;;;;;;6.56;60.49;102018.94;5063930;28;20056;-72
2021/05/03 06:57:47;;;;;;;18.67;10.73;;;;;;;6.62;60.61;102018.56;5058948;28;20075;-74
2021/05/03 07:00:15;;;;;;;20.38;9.85;;;;;;;6.69;59.88;102012.06;5062322;28;20052;-72
2021/05/03 07:02:43;;;;;;;19.27;10.15;;;;;;;6.81;60.39;102013.09;5049231;28;20141;-71
2021/05/03 07:05:11;;;;;;;19.55;8.93;;;;;;;6.86;59.56;102018.88;5060475;28;20051;-72
2021/05/03 07:07:37;;;;;;;20.55;10.00;;;;;;;6.89;59.16;102015.25;5044990;28;20560;-71
2021/05/03 07:10:07;;;;;;;19.33;10.13;;;;;;;6.96;59.04;102015.69;5041195;28;20451;-72
2021/05/03 07:12:39;;;;;;;20.23;10.32;;;;;;;7.09;59.48;102014.03;5045482;28;20113;-72
2021/05/03 07:15:06;;;;;;;19.55;10.32;;;;;;;7.06;58.04;102015.06;5052818;28;20481;-71
2021/05/03 07:17:32;;;;;;;21.25;9.43;;;;;;;7.07;57.54;102021.94;5058248;28;20075;-71
2021/05/03 07:20:00;;;;;;;20.48;9.55;;;;;;;7.16;57.67;102015.34;5053672;28;20120;-71
2021/05/03 07:22:26;;;;;;;20.25;10.20;;;;;;;7.14;57.91;102009.38;5062837;28;20048;-71
2021/05/03 07:24:53;;;;;;;20.33;10.73;;;;;;;7.23;57.33;102023.59;5055507;28;20041;-71
2021/05/03 07:27:19;;;;;;;23.77;10.38;;;;;;;7.31;57.71;101998.72;5064232;28;20056;-72
2021/05/03 07:29:45;;;;;;;23.45;10.85;;;;;;;7.36;57.51;102005.44;5047914;28;20061;-72
2021/05/03 07:32:11;;;;;;;23.23;11.73;;;;;;;7.44;57.40;102006.59;5040952;28;20270;-71
2021/05/03 07:34:39;;;;;;;27.40;11.30;;;;;;;7.50;57.91;101997.56;5059063;28;20049;-71
2021/05/03 07:37:06;;;;;;;23.30;11.70;;;;;;;7.65;57.72;101993.13;5053460;28;20087;-72
2021/05/03 07:39:35;;;;;;;28.48;13.00;;;;;;;7.72;57.29;101983.94;5061604;28;20476;-71
2021/05/03 07:42:02;;;;;;;22.98;12.05;;;;;;;7.88;57.31;101991.66;5056643;28;20044;-72
2021/05/03 07:44:49;;;;;;;25.00;13.38;;;;;;;8.03;56.88;101977.56;5055433;28;20048;-73
2021/05/03 07:47:16;;;;;;;27.88;13.70;;;;;;;8.07;57.19;101980.81;5058894;28;20060;-71
2021/05/03 07:49:42;;;;;;;30.90;15.25;;;;;;;8.20;57.00;101986.06;5065512;28;20048;-71
2021/05/03 07:52:08;;;;;;;27.83;14.57;;;;;;;8.35;57.00;101979.81;5061750;28;20815;-71
2021/05/03 07:54:35;;;;;;;30.42;15.18;;;;;;;8.49;56.57;101987.59;5051618;28;20044;-73
2021/05/03 07:57:02;;;;;;;25.50;14.73;;;;;;;8.60;56.71;101986.84;5057861;28;20496;-72
2021/05/03 07:59:28;;;;;;;34.28;15.38;;;;;;;8.74;56.15;101983.28;5049297;28;20552;-71
2021/05/03 08:01:54;;;;;;;34.28;17.05;;;;;;;8.81;56.38;101978.47;5044392;28;20559;-74
2021/05/03 08:04:21;;;;;;;31.02;17.58;;;;;;;8.89;55.50;101976.16;5062763;28;20643;-72
2021/05/03 08:06:48;;;;;;;37.05;17.77;;;;;;;9.06;55.51;101973.19;5057209;28;20060;-72
2021/05/03 08:09:14;;;;;;;34.42;18.33;;;;;;;9.17;55.47;101972.41;5045359;28;20122;-72
2021/05/03 08:11:43;;;;;;;33.38;18.23;;;;;;;9.37;55.28;101978.00;5052741;28;20496;-72
2021/05/03 08:14:17;;;;;;;40.53;21.65;;;;;;;9.47;54.47;101976.44;5040278;28;20530;-72
2021/05/03 08:16:44;;;;;;;49.03;22.10;;;;;;;9.61;54.05;101983.28;5038450;28;20128;-73
2021/05/03 08:19:10;;;;;;;40.30;20.10;;;;;;;9.64;53.67;101962.94;5064016;28;20048;-72
2021/05/03 08:21:52;;;;;;;40.08;23.58;;;;;;;9.80;52.86;101972.28;5056277;28;20538;-73
2021/05/03 08:24:18;;;;;;;34.05;20.35;;;;;;;10.09;52.89;101965.72;5069367;28;20349;-74
2021/05/03 08:26:44;;;;;;;39.15;19.63;;;;;;;10.29;51.98;101966.84;5039954;28;20048;-72
2021/05/03 08:29:10;;;;;;;42.72;20.33;;;;;;;10.23;51.17;101962.06;5055846;28;20565;-72
2021/05/03 08:31:36;;;;;;;40.70;21.15;;;;;;;10.43;51.08;101963.19;5063428;28;20102;-73
2021/05/03 08:34:03;;;;;;;34.50;19.60;;;;;;;10.38;51.04;101961.88;5056304;28;20076;-72
2021/05/03 08:36:29;;;;;;;40.08;21.00;;;;;;;10.75;52.14;101967.72;5064585;28;20075;-72
2021/05/03 08:38:55;;;;;;;33.53;20.60;;;;;;;10.87;51.28;101964.13;5036656;28;20059;-71
2021/05/03 08:41:21;;;;;;;35.08;18.90;;;;;;;10.97;50.96;101961.63;5039090;28;20053;-72
2021/05/03 08:43:48;;;;;;;36.47;20.02;;;;;;;11.06;51.20;101955.66;5065244;28;20165;-72
2021/05/03 08:46:26;;;;;;;36.17;20.65;;;;;;;11.16;50.67;101989.06;5041293;28;20098;-73
2021/05/03 08:49:20;;;;;;;35.50;19.70;;;;;;;11.03;50.48;101952.44;5058984;28;20080;-73
2021/05/03 08:56:43;;;;;;;36.83;19.27;;;;;;;11.78;49.82;101946.38;5054265;28;20076;-73
2021/05/03 08:59:11;;;;;;;42.05;22.30;;;;;;;11.87;49.23;101939.50;5061980;28;20052;-72
2021/05/03 09:01:38;;;;;;;39.17;19.55;;;;;;;12.11;49.62;101928.75;5057264;28;20052;-73
2021/05/03 09:04:05;;;;;;;34.40;20.77;;;;;;;12.16;49.39;101929.22;5071899;28;20102;-73
2021/05/03 09:06:31;;;;;;;41.10;21.52;;;;;;;12.01;48.65;101933.94;5061771;28;20056;-73
2021/05/03 09:09:04;;;;;;;31.65;18.98;;;;;;;12.30;49.02;101932.47;5053356;28;20076;-73
2021/05/03 09:11:30;;;;;;;36.28;21.17;;;;;;;12.55;48.75;101933.84;5060798;28;20049;-73
2021/05/03 09:14:14;;;;;;;37.70;20.75;;;;;;;12.70;47.55;101926.41;5055808;28;20052;-73
2021/05/03 09:16:46;;;;;;;33.22;20.60;;;;;;;12.48;46.39;101936.16;5065254;28;20309;-72
2021/05/03 09:19:13;;;;;;;30.77;19.63;;;;;;;12.45;46.91;101932.00;5058374;28;20048;-72
2021/05/03 09:21:40;;;;;;;31.42;19.60;;;;;;;12.61;47.24;101928.03;5061700;28;20075;-74
2021/05/03 09:24:23;;;;;;;31.90;18.48;;;;;;;12.64;47.40;101927.75;5057391;28;20052;-74
2021/05/03 09:27:05;;;;;;;27.98;17.10;;;;;;;12.87;46.81;101928.41;5048785;28;20117;-73
2021/05/03 09:29:32;;;;;;;32.40;18.92;;;;;;;13.21;46.59;101926.28;5063925;28;20137;-74
2021/05/03 09:32:04;;;;;;;29.98;18.05;;;;;;;13.33;46.30;101923.50;5052000;28;20076;-74
2021/05/03 09:34:48;;;;;;;29.83;17.75;;;;;;;13.51;46.25;101915.78;5055220;28;20052;-73
2021/05/03 09:37:33;;;;;;;28.50;17.90;;;;;;;13.67;45.93;101912.59;5050313;28;20056;-73
2021/05/03 09:40:03;;;;;;;27.52;18.30;;;;;;;14.01;45.20;101912.94;5044086;28;20106;-73
2021/05/03 09:42:53;;;;;;;34.00;19.10;;;;;;;13.81;44.32;101912.13;5056280;28;20076;-73
2021/05/03 09:45:29;;;;;;;26.85;16.73;;;;;;;13.91;44.94;101905.03;5064928;28;20568;-73
2021/05/03 09:47:58;;;;;;;27.55;16.25;;;;;;;14.33;45.11;101903.81;5056517;28;20054;-71
2021/05/03 09:50:27;;;;;;;27.00;16.65;;;;;;;14.14;44.03;101899.44;5061410;28;20048;-73
2021/05/03 09:53:13;;;;;;;26.75;16.98;;;;;;;14.12;43.06;101907.50;5055314;28;20052;-71
2021/05/03 09:55:45;;;;;;;26.83;16.42;;;;;;;13.87;44.00;101901.03;5062786;28;20044;-71
2021/05/03 09:58:21;;;;;;;23.20;16.30;;;;;;;13.93;43.76;101897.00;5065149;28;20547;-74
2021/05/03 10:00:49;;;;;;;31.08;17.80;;;;;;;13.94;43.47;101901.31;5058303;28;20116;-73
2021/05/03 10:03:42;;;;;;;28.08;16.42;;;;;;;14.09;44.03;101885.84;5057660;28;20052;-71
2021/05/03 10:06:15;;;;;;;27.17;16.90;;;;;;;13.79;43.00;101880.63;5056271;28;20048;-71
2021/05/03 10:08:45;;;;;;;25.80;16.83;;;;;;;13.70;43.56;101870.09;5063652;28;20069;-72
2021/05/03 10:11:15;;;;;;;25.13;16.45;;;;;;;13.95;44.27;101885.31;5056925;28;20055;-71
2021/05/03 10:13:44;;;;;;;26.55;17.73;;;;;;;13.87;44.07;101872.00;5063534;28;20139;-70
2021/05/03 10:16:11;;;;;;;27.17;15.68;;;;;;;14.03;44.32;101872.25;5056483;28;20060;-71
2021/05/03 10:18:40;;;;;;;26.17;16.30;;;;;;;14.17;44.01;101862.19;5058818;28;20052;-71
2021/05/03 10:21:12;;;;;;;25.48;16.85;;;;;;;14.27;43.87;101856.88;5047246;28;20057;-71
2021/05/03 10:23:40;;;;;;;24.98;17.50;;;;;;;14.22;44.05;101849.41;5056957;28;20106;-71
2021/05/03 10:26:07;;;;;;;22.20;16.23;;;;;;;14.31;43.40;101852.97;5064397;28;20129;-72
2021/05/03 10:28:49;;;;;;;23.98;16.65;;;;;;;14.28;42.41;101848.84;5055939;28;20285;-71
2021/05/03 10:31:16;;;;;;;24.52;16.33;;;;;;;13.95;42.79;101853.66;5064438;28;20060;-72
2021/05/03 10:33:42;;;;;;;23.35;16.08;;;;;;;13.98;42.41;101844.66;5051910;28;20488;-72
2021/05/03 10:36:08;;;;;;;28.40;13.70;;;;;;;13.80;42.27;101840.13;5061968;28;20052;-74
2021/05/03 10:38:38;;;;;;;24.23;15.95;;;;;;;14.09;42.61;101836.53;5054956;28;20468;-72
2021/05/03 10:41:24;;;;;;;21.52;14.85;;;;;;;14.30;41.94;101840.78;5037537;28;20109;-72
2021/05/03 10:43:52;;;;;;;21.83;15.43;;;;;;;14.28;42.54;101840.09;5062284;28;20051;-72
2021/05/03 10:49:09;;;;;;;23.10;15.95;;;;;;;14.50;41.35;101831.75;5061088;28;20075;-72
2021/05/03 10:51:45;;;;;;;23.17;16.70;;;;;;;14.29;41.29;101845.22;5055607;28;20099;-73
2021/05/03 10:54:25;;;;;;;24.30;16.30;;;;;;;14.02;41.14;101823.09;5057268;28;20549;-72
2021/05/03 10:56:53;;;;;;;20.17;15.40;;;;;;;14.21;41.37;101821.34;5052150;28;20143;-72
2021/05/03 10:59:20;;;;;;;24.77;16.05;;;;;;;14.21;40.95;101808.16;5062611;28;20102;-72
2021/05/03 11:01:55;;;;;;;23.85;16.63;;;;;;;14.28;41.54;101811.06;5055474;28;21125;-72
2021/05/03 11:04:26;;;;;;;28.55;17.35;;;;;;;14.43;41.51;101806.97;5061494;28;20404;-72
2021/05/03 11:06:51;;;;;;;22.65;16.67;;;;;;;14.41;40.92;101793.91;5060158;28;20541;-72
2021/05/03 11:09:30;;;;;;;23.17;15.75;;;;;;;14.96;40.97;101790.34;5048462;28;20052;-72
2021/05/03 11:12:06;;;;;;;23.67;16.25;;;;;;;14.81;39.89;101782.13;5065242;28;20439;-72
2021/05/03 11:15:18;;;;;;;21.95;14.38;;;;;;;14.87;39.23;101801.00;5041910;28;20129;-72
2021/05/03 11:18:25;;;;;;;22.98;15.93;;;;;;;14.76;38.27;101778.25;5059946;28;20071;-72
2021/05/03 11:21:02;;;;;;;20.63;15.02;;;;;;;14.58;38.89;101786.19;5053623;28;20130;-72
2021/05/03 11:23:31;;;;;;;20.45;13.10;;;;;;;14.66;38.59;101778.34;5058382;28;20114;-72
2021/05/03 11:25:57;;;;;;;20.50;14.30;;;;;;;14.70;38.47;101782.38;5056404;28;20052;-73
2021/05/03 11:28:29;;;;;;;27.13;15.50;;;;;;;14.72;37.89;101776.91;5064129;28;20052;-72
2021/05/03 11:31:02;;;;;;;20.70;14.48;;;;;;;14.85;37.30;101771.25;5055214;28;20139;-73
2021/05/03 11:33:42;;;;;;;19.83;13.23;;;;;;;14.52;36.75;101768.25;5047344;28;20462;-73
2021/05/03 11:36:13;;;;;;;18.95;13.50;;;;;;;14.39;37.21;101790.56;5052966;28;20131;-72
2021/05/03 11:41:31;;;;;;;20.92;13.05;;;;;;;14.76;37.28;101762.41;5068613;28;20121;-72
2021/05/03 11:46:32;;;;;;;20.17;14.30;;;;;;;14.78;38.59;101755.19;5055876;28;20102;-72
2021/05/03 11:49:13;;;;;;;17.15;12.27;;;;;;;14.59;36.13;101775.47;5051325;28;20509;-72
2021/05/03 11:51:51;;;;;;;19.13;13.32;;;;;;;14.54;36.42;101764.47;5056455;28;20149;-73
2021/05/03 11:54:34;;;;;;;22.63;15.18;;;;;;;14.61;37.30;101760.31;5052900;28;20517;-72